KPIL

Port Isabel-Cameron County Airport

Port Isabel, Texas, USA
METAR KPIL 100553Z AUTO 35008KT 10SM CLR 08/06 A3035 RMK AO2 SLP278 T00830061 10111 20083 401610067 51008
Observed Flight Rules
Dec-10 @ 05:53 UTC (35 minutes ago) Visual Flight Rules
Wind Visibility Clouds
350° at 8 knots 10 miles
  • Clear skies
Temperatures Readings
Current 8°C / 46°F
Dewpoint 6°C / 43°F
Humidity 87%
Altimeter 30.35" Hg
Pressure 1027.8 hPa
Elevation 5
METAR KPIL 100553Z AUTO 35008KT 10SM CLR 08/06 A3035 RMK AO2 SLP278 T00830061 10111 20083 401610067 51008
Observed Flight Rules
Dec-10 @ 05:53 UTC
(35 minutes ago)
VFR
Wind Visibility
350° at 8 knots 10 miles
Clouds
  • Clear skies
Temperature Dewpoint
8°C / 46°F 6°C / 43°F
Humidity Altimeter Pressure
87% 30.35" Hg 1027.8 hPa